首页
METAR-TAF:

METAR-TAF

机场 :

Les Ajoncs

永河畔拉罗什, 法国

纬度: 46-42N, 经度: 001-23W, 海拔: 90米

当前天气观测

该预报发布于40分钟前的09:00 UTC
风速6节,风向西转西南,在南转西南西之间变化
温度 15°C
湿度 72%
气压 1011 hPa
能见度10公里或以上
1500米以下无云,无积雨云

METAR: LFRI 150900Z AUTO 24006KT 200V270 CAVOK 15/10 Q1011 TEMPO 4500 -SHRA BKN020TCU

时间: 11:40 (09:40 UTC)

预报

该预报发布于4小时和40分钟前的05:00 UTC
预报有效从15日的 06点(UTC)到 16日的 06点(UTC)
风速7节,风向西
能见度10公里或以上
散云层高于2000英尺
短暂存在
从 15日的 06点(UTC)到 15日的 18点(UTC)
能見度: 4500
多云层高于2000英尺, 塔状积云.
小阵雨
短暂存在
从 15日的 12点(UTC)到 15日的 14点(UTC)
风速15节,风向西转西南,有时为25节阵风
短暂存在
从 15日的 20点(UTC)到 16日的 03点(UTC)
能見度: 4500
多云层高于1400英尺
小雨
成为
从 16日的 00点(UTC)到 16日的 03点(UTC)
风速15节,风向西南,有时为25节阵风
多云层高于1400英尺
小雨
短暂存在
从 16日的 03点(UTC)到 16日的 06点(UTC)
风速18节,风向西南,有时为30节阵风
能見度: 2000
多云层高于900英尺

TAF: LFRI 150500Z 1506/1606 26007KT 9999 SCT020 TEMPO 1506/1518 4500 -SHRA BKN020TCU TEMPO 1512/1514 24015G25KT TEMPO 1520/1603 4500 -RA BKN014 BECMG 1600/1603 22015G25KT -RA BKN014 TEMPO 1603/1606 22018G30KT 2000 RA BKN009

超过4000个机场的气象观测和天气预报(METAR&TAF报告)。

可查询的气象台以黄色和红色小点在地图上表示。

将鼠标移到小点上方,可查看气象台名称。

然后点击查看天气观测和预报。

如需切换地图:点击带黑十字的绿色按钮放大地图;点击带横线的绿色按钮缩小地图;或者点击绿色箭头查看邻近地区的地图。


METAR-TAF: